Time;durP1;ratioP1;P1;durP2;ratioP2;P2;SDS_P1;SDS_P2;PMS_P1;PMS_P2;Temp;Humidity;BMP_temperature;BMP_pressure;BME280_temperature;BME280_humidity;BME280_pressure;Samples;Min_cycle;Max_cycle;Signal;HPM_P1;HPM_P2
2021/03/28 00:00:04;;;;;;;10.65;3.75;;;;;;;8.07;57.31;100118.44;5054062;28;20049;-62
2021/03/28 00:02:37;;;;;;;12.20;3.75;;;;;;;8.05;57.36;100123.03;5054261;28;20037;-61
2021/03/28 00:05:17;;;;;;;12.40;3.75;;;;;;;8.01;57.40;100127.75;5054010;28;20067;-61
2021/03/28 00:07:49;;;;;;;10.10;3.63;;;;;;;8.01;57.45;100133.00;5053962;28;20495;-61
2021/03/28 00:10:27;;;;;;;12.27;3.60;;;;;;;8.03;57.57;100131.06;5053812;28;20037;-60
2021/03/28 00:13:03;;;;;;;11.70;3.95;;;;;;;8.04;57.79;100135.38;5053875;28;20041;-60
2021/03/28 00:15:35;;;;;;;8.95;3.35;;;;;;;7.99;57.62;100129.69;5053657;28;20048;-61
2021/03/28 00:18:14;;;;;;;13.55;4.15;;;;;;;8.01;57.59;100137.47;5053841;28;20051;-61
2021/03/28 00:20:44;;;;;;;8.13;3.35;;;;;;;7.92;57.79;100136.50;5053626;28;20102;-61
2021/03/28 00:23:19;;;;;;;11.82;4.35;;;;;;;7.90;58.06;100136.63;5053769;28;20091;-60
2021/03/28 00:25:52;;;;;;;11.15;4.20;;;;;;;7.87;57.83;100133.47;5052492;28;20597;-61
2021/03/28 00:28:39;;;;;;;11.13;3.35;;;;;;;7.89;58.06;100142.06;5066658;28;20048;-60
2021/03/28 00:31:27;;;;;;;12.55;3.88;;;;;;;8.02;57.75;100136.47;5075943;28;20119;-60
2021/03/28 00:34:04;;;;;;;11.55;3.97;;;;;;;8.03;57.57;100146.03;5052301;28;20049;-60
2021/03/28 00:36:36;;;;;;;11.82;4.03;;;;;;;7.95;57.47;100149.38;5052247;28;20045;-60
2021/03/28 00:39:07;;;;;;;12.95;4.22;;;;;;;7.99;57.48;100144.66;5053175;28;20053;-60
2021/03/28 00:41:46;;;;;;;8.40;3.83;;;;;;;7.98;57.64;100141.19;5053230;28;20376;-60
2021/03/28 00:44:16;;;;;;;10.98;3.72;;;;;;;7.84;57.61;100139.84;5053262;28;20047;-60
2021/03/28 00:46:45;;;;;;;9.93;3.85;;;;;;;7.83;57.77;100132.91;5053318;28;20055;-60
2021/03/28 00:49:22;;;;;;;9.75;3.33;;;;;;;7.89;57.97;100126.25;5053146;28;20140;-61
2021/03/28 00:51:54;;;;;;;7.63;3.50;;;;;;;7.95;57.80;100123.88;5053321;28;20048;-61
2021/03/28 00:54:34;;;;;;;9.82;3.53;;;;;;;7.99;57.72;100127.03;5052953;28;20037;-61
2021/03/28 00:57:05;;;;;;;15.55;4.85;;;;;;;8.00;57.58;100125.22;5053117;28;20029;-61
2021/03/28 00:59:51;;;;;;;9.73;3.88;;;;;;;8.07;57.57;100124.53;5051811;28;20041;-62
2021/03/28 01:02:40;;;;;;;12.68;4.15;;;;;;;8.09;57.60;100119.13;5051852;28;20442;-61
2021/03/28 01:05:29;;;;;;;8.35;3.40;;;;;;;8.11;57.41;100110.09;5052489;28;20044;-61
2021/03/28 01:08:02;;;;;;;12.80;4.47;;;;;;;8.14;57.59;100111.63;5052777;28;20048;-61
2021/03/28 01:10:52;;;;;;;12.85;4.38;;;;;;;8.16;57.39;100102.59;5052783;28;20056;-61
2021/03/28 01:14:09;;;;;;;10.93;4.15;;;;;;;8.18;57.36;100097.19;5052718;28;20057;-61
2021/03/28 01:17:03;;;;;;;9.50;4.05;;;;;;;8.15;57.25;100100.94;5052698;28;20037;-61
2021/03/28 01:19:43;;;;;;;;;;;;;;;8.08;57.44;100104.28;5053054;28;20045;-61
2021/03/28 01:22:18;;;;;;;8.13;3.38;;;;;;;8.09;57.43;100108.59;5052663;28;20383;-62
2021/03/28 01:24:58;;;;;;;9.30;3.83;;;;;;;8.11;57.37;100109.25;5052584;28;20053;-61
2021/03/28 01:27:29;;;;;;;11.93;4.05;;;;;;;8.05;57.46;100110.69;5052363;28;20053;-61
2021/03/28 01:30:07;;;;;;;9.48;3.85;;;;;;;8.00;57.49;100112.06;5052339;28;20052;-61
2021/03/28 01:32:39;;;;;;;11.23;3.78;;;;;;;7.99;57.54;100113.06;5052523;28;20056;-61
2021/03/28 01:35:21;;;;;;;11.48;3.75;;;;;;;8.01;57.62;100109.31;5052436;28;20517;-60
2021/03/28 01:37:51;;;;;;;10.07;3.78;;;;;;;8.02;57.60;100110.13;5052322;28;20049;-65
2021/03/28 01:40:22;;;;;;;5.43;2.85;;;;;;;7.98;57.71;100112.22;5052791;28;20419;-61
2021/03/28 01:43:05;;;;;;;16.13;3.75;;;;;;;7.99;57.58;100111.25;5053167;28;20045;-61
2021/03/28 01:45:43;;;;;;;6.72;3.60;;;;;;;7.93;57.43;100110.03;5052744;28;20044;-61
2021/03/28 01:48:25;;;;;;;12.57;3.88;;;;;;;7.94;57.24;100109.03;5052401;28;20495;-60
2021/03/28 01:51:04;;;;;;;9.20;3.85;;;;;;;7.94;57.41;100106.41;5052119;28;20048;-60
2021/03/28 01:53:43;;;;;;;8.65;3.60;;;;;;;7.91;57.51;100106.69;5052134;28;20044;-60
2021/03/28 01:56:19;;;;;;;10.20;3.47;;;;;;;7.90;57.47;100104.22;5051944;28;20045;-61
2021/03/28 01:59:04;;;;;;;12.30;3.30;;;;;;;7.89;57.39;100113.09;5051755;28;20055;-60
2021/03/28 02:01:43;;;;;;;9.93;3.90;;;;;;;7.88;57.68;100114.06;5052071;28;20041;-60
2021/03/28 02:04:21;;;;;;;12.43;3.22;;;;;;;7.87;57.68;100110.59;5050417;28;20057;-60
2021/03/28 02:07:06;;;;;;;8.55;3.20;;;;;;;7.87;57.75;100115.84;5051869;28;20037;-61
2021/03/28 02:09:42;;;;;;;8.82;3.47;;;;;;;7.90;57.53;100120.00;5051645;28;20124;-61
2021/03/28 02:12:14;;;;;;;11.75;3.47;;;;;;;7.89;57.56;100121.81;5051753;28;20049;-61
2021/03/28 02:15:11;;;;;;;11.05;3.95;;;;;;;7.88;57.59;100114.91;5051705;28;20075;-61
2021/03/28 02:17:55;;;;;;;10.48;3.88;;;;;;;7.89;57.53;100116.56;5051033;28;20040;-61
2021/03/28 02:20:37;;;;;;;11.73;4.05;;;;;;;7.87;57.45;100115.03;5051628;28;20411;-61
2021/03/28 02:23:14;;;;;;;9.80;3.28;;;;;;;7.87;57.32;100113.22;5051711;28;20056;-61
2021/03/28 02:25:49;;;;;;;8.23;3.33;;;;;;;7.87;57.77;100115.84;5051522;28;20510;-61
2021/03/28 02:28:32;;;;;;;14.43;3.67;;;;;;;7.87;57.41;100113.22;5051613;28;20407;-61
2021/03/28 02:31:06;;;;;;;11.57;3.05;;;;;;;7.87;57.65;100115.03;5051693;28;20049;-61
2021/03/28 02:33:45;;;;;;;8.27;3.50;;;;;;;7.89;57.41;100115.72;5051857;28;20091;-61
2021/03/28 02:36:35;;;;;;;9.25;3.15;;;;;;;7.87;57.43;100121.13;5051567;28;20052;-61
2021/03/28 02:39:21;;;;;;;12.20;2.92;;;;;;;7.86;57.38;100116.81;5051651;28;20041;-61
2021/03/28 02:42:17;;;;;;;13.63;3.08;;;;;;;7.84;57.35;100117.97;5051586;28;20056;-61
2021/03/28 02:44:58;;;;;;;10.38;2.88;;;;;;;7.87;57.31;100110.59;5041272;28;20406;-61
2021/03/28 02:47:40;;;;;;;12.35;3.35;;;;;;;7.86;57.30;100118.63;5051466;28;20087;-61
2021/03/28 02:50:25;;;;;;;11.70;4.53;;;;;;;7.82;57.37;100112.00;5051375;28;20106;-61
2021/03/28 02:53:12;;;;;;;7.30;2.60;;;;;;;7.78;57.63;100118.53;5051487;28;20087;-61
2021/03/28 02:55:52;;;;;;;9.25;2.88;;;;;;;7.74;57.55;100122.41;5051231;28;20045;-61
2021/03/28 02:58:33;;;;;;;12.85;3.92;;;;;;;7.73;57.56;100111.06;5051460;28;20095;-61
2021/03/28 03:01:18;;;;;;;9.05;3.67;;;;;;;7.75;57.67;100110.91;5050069;28;20055;-61
2021/03/28 03:04:08;;;;;;;12.15;3.35;;;;;;;7.73;57.76;100112.84;5051563;28;20045;-61
2021/03/28 03:07:01;;;;;;;11.20;3.65;;;;;;;7.70;57.66;100106.88;5051329;28;20036;-61
2021/03/28 03:09:40;;;;;;;10.32;3.45;;;;;;;7.66;57.67;100108.16;5051200;28;20049;-62
2021/03/28 03:12:29;;;;;;;7.60;2.90;;;;;;;7.65;57.69;100109.13;5051226;28;20048;-61
2021/03/28 03:15:06;;;;;;;7.90;2.90;;;;;;;7.63;57.54;100104.97;5051418;28;20102;-61
2021/03/28 03:18:04;;;;;;;14.68;3.78;;;;;;;7.61;57.55;100105.13;5051150;28;20045;-61
2021/03/28 03:21:16;;;;;;;10.63;3.80;;;;;;;7.54;57.80;100104.00;5049995;28;20048;-61
2021/03/28 03:24:20;;;;;;;10.45;3.67;;;;;;;7.51;57.91;100112.22;4970441;28;20058;-61
2021/03/28 03:27:31;;;;;;;13.23;3.78;;;;;;;7.49;57.68;100105.41;4970425;28;20047;-61
2021/03/28 03:30:18;;;;;;;8.10;2.97;;;;;;;7.47;57.73;100104.72;5054981;28;20488;-62
2021/03/28 03:33:17;;;;;;;10.55;3.15;;;;;;;7.45;57.71;100107.50;5054723;28;20053;-61
2021/03/28 03:35:50;;;;;;;12.20;3.05;;;;;;;7.42;57.69;100103.34;5054523;28;20064;-61
2021/03/28 03:38:38;;;;;;;12.10;3.42;;;;;;;7.40;57.70;100102.66;5054491;28;20065;-63
2021/03/28 03:41:38;;;;;;;7.32;3.00;;;;;;;7.34;57.74;100120.78;5054472;28;20049;-62
2021/03/28 03:44:17;;;;;;;7.40;2.85;;;;;;;7.26;58.06;100116.22;5054781;28;20045;-62
2021/03/28 03:46:59;;;;;;;19.80;3.45;;;;;;;7.25;58.20;100130.34;5054473;28;20052;-62
2021/03/28 03:49:54;;;;;;;8.50;3.15;;;;;;;7.23;58.26;100120.97;5054270;28;20049;-62
2021/03/28 03:52:36;;;;;;;8.50;3.25;;;;;;;7.24;58.41;100133.97;5054571;28;20052;-62
2021/03/28 03:55:13;;;;;;;12.02;3.20;;;;;;;7.22;58.29;100135.88;5054429;28;20489;-62
2021/03/28 03:57:43;;;;;;;10.85;3.30;;;;;;;7.20;58.40;100130.78;5054256;28;20127;-62
2021/03/28 04:00:17;;;;;;;9.73;3.17;;;;;;;7.17;58.58;100130.22;5052881;28;20564;-61
2021/03/28 04:02:53;;;;;;;9.95;2.70;;;;;;;7.17;58.55;100122.31;5054222;28;20466;-62
2021/03/28 04:05:56;;;;;;;9.35;2.95;;;;;;;7.13;58.54;100128.84;5052794;28;20124;-63
2021/03/28 04:08:41;;;;;;;8.90;2.90;;;;;;;7.05;58.45;100121.63;5030970;28;20042;-61
2021/03/28 04:11:24;;;;;;;9.13;3.65;;;;;;;7.06;58.57;100143.50;5072593;28;20063;-60
2021/03/28 04:14:05;;;;;;;8.18;2.83;;;;;;;6.97;58.62;100142.53;5055807;28;20045;-61
2021/03/28 04:16:44;;;;;;;12.55;2.95;;;;;;;6.99;58.84;100142.41;5053843;28;20041;-61
2021/03/28 04:19:23;;;;;;;6.45;2.67;;;;;;;6.95;58.93;100142.66;5052578;28;20068;-61
2021/03/28 04:22:13;;;;;;;7.97;3.33;;;;;;;6.90;59.10;100137.00;5052618;28;20064;-61
2021/03/28 04:24:49;;;;;;;11.73;3.15;;;;;;;6.81;59.25;100129.91;5053489;28;20056;-61
2021/03/28 04:27:41;;;;;;;9.63;3.70;;;;;;;6.85;59.18;100143.59;5052658;28;20044;-61
2021/03/28 04:30:32;;;;;;;8.00;2.88;;;;;;;6.74;59.40;100144.56;5053550;28;20427;-61
2021/03/28 04:33:12;;;;;;;9.60;3.47;;;;;;;6.72;59.49;100143.03;5053574;28;20048;-61
2021/03/28 04:35:55;;;;;;;9.65;3.03;;;;;;;6.74;59.53;100144.56;5053485;28;20045;-61
2021/03/28 04:38:43;;;;;;;6.30;2.67;;;;;;;6.74;59.44;100139.31;5053115;28;20036;-61
2021/03/28 04:41:46;;;;;;;11.07;3.20;;;;;;;6.70;59.49;100143.19;5053264;28;20503;-61
2021/03/28 04:44:43;;;;;;;12.52;3.50;;;;;;;6.68;59.77;100143.28;5020445;28;20053;-62
2021/03/28 04:47:28;;;;;;;8.23;2.95;;;;;;;6.68;59.51;100142.47;5052934;28;20053;-62
2021/03/28 04:50:15;;;;;;;;;;;;;;;6.64;59.65;100138.44;5053660;28;20453;-63
2021/03/28 04:53:14;;;;;;;9.40;3.10;;;;;;;6.62;59.57;100135.97;5053276;28;19920;-62
2021/03/28 04:56:17;;;;;;;9.82;3.78;;;;;;;6.59;59.71;100140.66;5052851;28;20053;-62
2021/03/28 04:59:19;;;;;;;10.00;3.25;;;;;;;6.59;59.81;100133.59;5053015;28;20044;-62
2021/03/28 05:02:18;;;;;;;12.30;3.50;;;;;;;6.63;59.65;100132.38;5052899;28;20049;-62
2021/03/28 05:05:30;;;;;;;8.05;3.00;;;;;;;6.56;59.79;100130.41;5051540;28;20053;-62
2021/03/28 05:08:34;;;;;;;10.85;3.53;;;;;;;6.57;59.86;100132.06;5052742;28;20037;-62
2021/03/28 05:11:13;;;;;;;;;;;;;;;6.53;59.79;100134.16;5053429;28;20052;-62
2021/03/28 05:14:26;;;;;;;8.90;3.38;;;;;;;6.52;59.80;100132.47;5051457;28;19986;-62
2021/03/28 05:17:27;;;;;;;10.20;3.47;;;;;;;6.47;59.98;100142.56;5015858;28;20418;-61
2021/03/28 05:20:40;;;;;;;8.75;3.67;;;;;;;6.49;59.96;100152.91;5052653;28;20045;-62
2021/03/28 05:23:43;;;;;;;9.02;4.07;;;;;;;6.48;59.98;100154.72;4971460;28;20054;-62
2021/03/28 05:26:35;;;;;;;10.35;3.42;;;;;;;6.57;60.13;100153.09;5050260;28;20048;-62
2021/03/28 05:29:29;;;;;;;11.93;4.22;;;;;;;6.60;60.22;100179.09;5052266;28;20111;-62
2021/03/28 05:32:14;;;;;;;9.10;3.70;;;;;;;6.61;60.14;100178.97;5052502;28;20047;-62
2021/03/28 05:35:08;;;;;;;5.90;2.90;;;;;;;6.51;60.50;100183.34;5052784;28;20052;-62
2021/03/28 05:38:05;;;;;;;11.52;4.10;;;;;;;6.44;60.55;100192.72;5052378;28;20037;-61
2021/03/28 05:40:52;;;;;;;6.20;2.85;;;;;;;6.45;60.52;100189.97;5052418;28;20471;-61
2021/03/28 05:43:44;;;;;;;15.30;4.25;;;;;;;6.53;60.45;100193.72;5050580;28;20064;-62
2021/03/28 05:46:33;;;;;;;13.27;3.63;;;;;;;6.60;60.29;100187.81;5052276;28;20045;-62
2021/03/28 05:49:13;;;;;;;10.60;3.30;;;;;;;6.67;60.23;100180.22;5052159;28;20052;-63
2021/03/28 05:51:58;;;;;;;8.43;3.65;;;;;;;6.76;60.12;100189.09;5051995;28;20051;-62
2021/03/28 05:55:01;;;;;;;11.30;3.15;;;;;;;6.82;60.11;100181.53;5052046;28;20041;-62
2021/03/28 05:58:02;;;;;;;10.38;3.25;;;;;;;6.87;59.99;100178.50;5051900;28;20045;-62
2021/03/28 06:00:40;;;;;;;8.68;2.80;;;;;;;6.93;60.00;100178.75;5051739;28;20049;-62
2021/03/28 06:03:35;;;;;;;10.68;5.30;;;;;;;6.95;59.86;100187.34;5051857;28;20072;-63
2021/03/28 06:06:45;;;;;;;7.28;3.42;;;;;;;7.05;59.64;100189.16;5051764;28;20041;-62
2021/03/28 06:09:58;;;;;;;9.38;2.92;;;;;;;7.15;59.36;100193.47;5051689;28;20049;-62
2021/03/28 06:12:51;;;;;;;10.35;3.85;;;;;;;7.22;59.02;100193.75;4993755;28;20049;-62
2021/03/28 06:15:45;;;;;;;9.57;4.15;;;;;;;7.31;58.82;100198.22;5051765;28;20049;-62
2021/03/28 06:18:42;;;;;;;14.55;5.20;;;;;;;7.39;58.77;100210.69;5052037;28;20037;-62
2021/03/28 06:21:34;;;;;;;9.13;3.00;;;;;;;7.41;58.62;100216.63;5035328;28;20065;-62
2021/03/28 06:24:40;;;;;;;8.82;3.05;;;;;;;7.37;58.75;100215.22;5043185;28;20053;-61
2021/03/28 06:27:46;;;;;;;10.77;3.50;;;;;;;7.34;58.78;100224.22;5051883;28;20049;-61
2021/03/28 06:30:49;;;;;;;7.93;2.85;;;;;;;7.29;58.62;100229.06;5052104;28;20045;-61
2021/03/28 06:33:47;;;;;;;9.70;3.10;;;;;;;7.28;58.55;100237.09;5051750;28;20049;-62
2021/03/28 06:36:58;;;;;;;11.57;3.15;;;;;;;7.14;58.61;100239.16;5051882;28;20045;-63
2021/03/28 06:40:02;;;;;;;7.45;2.40;;;;;;;7.13;58.57;100240.09;5045393;28;20099;-62
2021/03/28 06:43:02;;;;;;;9.15;3.13;;;;;;;7.11;58.39;100242.06;5052231;28;20047;-62
2021/03/28 06:45:59;;;;;;;11.50;3.67;;;;;;;7.04;58.71;100250.63;5051489;28;20095;-63
2021/03/28 06:48:52;;;;;;;11.13;3.47;;;;;;;6.98;58.79;100244.09;5051443;28;20043;-62
2021/03/28 06:51:43;;;;;;;12.63;4.15;;;;;;;7.03;58.89;100251.59;5051509;28;20048;-62
2021/03/28 06:54:42;;;;;;;15.80;3.80;;;;;;;7.16;58.67;100260.88;5051591;28;20060;-62
2021/03/28 06:57:41;;;;;;;11.43;4.07;;;;;;;7.32;58.69;100262.16;5051487;28;20052;-62
2021/03/28 07:00:44;;;;;;;8.23;3.60;;;;;;;7.43;58.46;100267.31;5051498;28;20052;-62
2021/03/28 07:04:04;;;;;;;14.68;4.40;;;;;;;7.49;58.28;100264.13;5023870;28;20128;-62
2021/03/28 07:06:40;;;;;;;8.43;3.30;;;;;;;7.52;58.44;100261.22;4973922;28;20125;-62
2021/03/28 07:09:21;;;;;;;11.75;3.85;;;;;;;7.55;58.25;100263.59;5054348;28;20060;-62
2021/03/28 07:11:57;;;;;;;9.48;2.97;;;;;;;7.60;57.98;100257.91;5055129;28;20499;-62
2021/03/28 07:15:12;;;;;;;11.40;3.38;;;;;;;7.65;57.69;100264.41;5055483;28;20522;-62
2021/03/28 07:18:12;;;;;;;18.25;3.92;;;;;;;7.69;57.43;100264.97;5019916;28;20118;-62
2021/03/28 07:21:09;;;;;;;8.23;2.72;;;;;;;7.78;57.29;100271.22;5024015;28;20056;-62
2021/03/28 07:24:05;;;;;;;9.10;3.30;;;;;;;7.94;57.19;100274.94;5053087;28;20128;-63
2021/03/28 07:26:57;;;;;;;12.43;4.63;;;;;;;8.13;57.15;100268.00;5053532;28;20189;-62
2021/03/28 07:29:59;;;;;;;12.77;3.38;;;;;;;8.15;56.63;100271.31;5053573;28;20079;-62
2021/03/28 07:32:57;;;;;;;11.05;3.40;;;;;;;8.16;56.45;100271.19;5054866;28;20410;-62
2021/03/28 07:35:45;;;;;;;9.15;3.30;;;;;;;8.19;56.41;100267.44;5054657;28;20040;-61
2021/03/28 07:38:41;;;;;;;10.68;3.72;;;;;;;8.28;55.79;100274.47;5053155;28;20068;-64
2021/03/28 07:41:27;;;;;;;11.43;3.90;;;;;;;8.42;55.58;100276.69;5055360;28;20067;-62
2021/03/28 07:44:49;;;;;;;12.82;3.08;;;;;;;8.58;54.92;100275.28;5055386;28;20033;-61
2021/03/28 07:47:31;;;;;;;6.30;2.75;;;;;;;8.72;54.71;100269.53;4984453;28;20054;-61
2021/03/28 07:50:39;;;;;;;7.30;2.95;;;;;;;8.85;53.71;100279.75;5066508;28;20045;-61
2021/03/28 07:53:30;;;;;;;8.30;3.28;;;;;;;8.81;53.65;100279.19;5053441;28;20049;-61
2021/03/28 07:56:16;;;;;;;5.40;2.45;;;;;;;8.95;53.77;100271.81;5054716;28;20060;-62
2021/03/28 07:58:57;;;;;;;9.23;3.00;;;;;;;9.11;52.71;100275.47;5054290;28;20053;-62
2021/03/28 08:01:44;;;;;;;8.65;3.03;;;;;;;9.20;52.99;100279.03;5054499;28;20119;-62
2021/03/28 08:04:41;;;;;;;8.70;3.70;;;;;;;9.31;52.56;100264.81;5054082;28;20115;-62
2021/03/28 08:07:29;;;;;;;10.52;3.67;;;;;;;9.52;52.36;100260.06;5053236;28;20152;-60
2021/03/28 08:10:17;;;;;;;9.10;2.80;;;;;;;9.59;51.75;100261.13;5054056;28;20395;-62
2021/03/28 08:13:14;;;;;;;16.20;3.22;;;;;;;9.62;51.46;100265.25;5054285;28;20045;-62
2021/03/28 08:16:23;;;;;;;8.93;3.03;;;;;;;9.75;51.25;100264.88;5053324;28;20127;-63
2021/03/28 08:19:19;;;;;;;6.95;2.70;;;;;;;9.91;51.44;100273.78;4979840;28;20057;-62
2021/03/28 08:21:53;;;;;;;8.95;2.50;;;;;;;9.92;50.79;100267.53;5054074;28;20041;-62
2021/03/28 08:24:37;;;;;;;10.38;2.60;;;;;;;10.00;50.68;100265.91;5053777;28;20041;-62
2021/03/28 08:27:45;;;;;;;12.88;5.90;;;;;;;10.11;50.24;100257.75;5053671;28;20115;-62
2021/03/28 08:30:50;;;;;;;8.15;3.17;;;;;;;10.26;49.95;100253.59;5054312;28;20048;-62
2021/03/28 08:33:58;;;;;;;10.93;3.15;;;;;;;10.35;49.83;100244.72;5023354;28;20053;-62
2021/03/28 08:36:43;;;;;;;11.27;2.70;;;;;;;10.49;49.18;100256.56;5053587;28;20048;-62
2021/03/28 08:39:26;;;;;;;7.15;2.30;;;;;;;10.50;48.92;100247.63;5053611;28;20083;-61
2021/03/28 08:42:23;;;;;;;8.18;2.83;;;;;;;10.63;48.65;100242.75;5053655;28;20041;-62
2021/03/28 08:45:25;;;;;;;10.45;2.60;;;;;;;10.79;48.27;100249.09;5053312;28;20052;-62
2021/03/28 08:48:10;;;;;;;8.63;2.60;;;;;;;10.88;48.00;100248.16;5053455;28;20037;-63
2021/03/28 08:50:43;;;;;;;6.60;2.15;;;;;;;11.03;47.98;100243.91;5052079;28;20056;-62
2021/03/28 08:53:42;;;;;;;6.10;2.03;;;;;;;11.08;47.50;100249.53;5052215;28;20522;-63
2021/03/28 08:56:49;;;;;;;7.05;2.10;;;;;;;11.01;46.74;100239.75;5053074;28;20052;-62
2021/03/28 08:59:23;;;;;;;9.25;2.83;;;;;;;11.05;46.98;100246.38;5053164;28;20045;-62
2021/03/28 09:01:59;;;;;;;5.90;1.95;;;;;;;11.21;46.73;100242.97;5053158;28;20129;-62
2021/03/28 09:04:47;;;;;;;5.85;2.35;;;;;;;11.31;46.31;100246.31;5052961;28;20545;-64
2021/03/28 09:07:22;;;;;;;7.72;2.60;;;;;;;11.36;46.13;100246.66;5051789;28;20041;-62
2021/03/28 09:10:21;;;;;;;8.02;2.20;;;;;;;11.38;45.87;100247.28;5053031;28;20041;-63
2021/03/28 09:12:56;;;;;;;8.20;2.40;;;;;;;11.49;45.13;100251.47;5052928;28;20503;-63
2021/03/28 09:15:38;;;;;;;6.78;2.53;;;;;;;11.44;45.75;100251.97;5052612;28;20048;-63
2021/03/28 09:18:17;;;;;;;8.27;2.28;;;;;;;11.62;45.01;100250.00;5050866;28;20040;-62
2021/03/28 09:20:53;;;;;;;12.30;2.40;;;;;;;11.74;45.66;100245.19;5052393;28;20459;-61
2021/03/28 09:23:40;;;;;;;8.82;2.28;;;;;;;11.78;44.31;100251.00;5052265;28;20429;-62
2021/03/28 09:26:27;;;;;;;7.10;2.30;;;;;;;11.75;43.90;100246.84;5051730;28;20049;-62
2021/03/28 09:29:17;;;;;;;5.75;1.98;;;;;;;11.74;44.07;100252.31;5052133;28;20049;-61
2021/03/28 09:31:54;;;;;;;3.90;1.65;;;;;;;11.77;43.82;100236.09;5052377;28;20044;-62
2021/03/28 09:34:38;;;;;;;7.18;1.98;;;;;;;11.73;43.04;100238.25;5052212;28;20065;-62
2021/03/28 09:37:13;;;;;;;;;;;;;;;11.82;43.66;100239.06;5052739;28;20041;-62
2021/03/28 09:39:49;;;;;;;6.43;2.20;;;;;;;11.89;43.05;100234.81;5052060;28;19928;-62
2021/03/28 09:42:35;;;;;;;10.05;2.95;;;;;;;11.96;43.03;100227.84;5052093;28;20044;-62
2021/03/28 09:45:50;;;;;;;8.60;2.25;;;;;;;12.09;42.70;100236.13;5050940;28;20053;-62
2021/03/28 09:48:37;;;;;;;;;;;;;;;12.17;42.25;100227.34;5052421;28;20041;-60
2021/03/28 09:51:18;;;;;;;6.28;2.30;;;;;;;12.32;42.06;100222.97;5047166;28;19921;-60
2021/03/28 09:54:06;;;;;;;7.30;2.90;;;;;;;12.49;42.00;100223.78;5052014;28;20049;-63
2021/03/28 09:57:04;;;;;;;11.23;5.10;;;;;;;12.78;41.01;100225.03;5051959;28;20041;-60
2021/03/28 09:59:47;;;;;;;4.05;2.30;;;;;;;12.96;40.48;100225.59;5051722;28;20045;-58
2021/03/28 10:02:28;;;;;;;7.90;4.00;;;;;;;13.09;40.54;100215.22;5051843;28;20049;-61
2021/03/28 10:05:01;;;;;;;7.15;2.85;;;;;;;13.28;40.10;100221.97;5050349;28;20045;-60
2021/03/28 10:07:42;;;;;;;7.25;2.60;;;;;;;13.56;39.46;100205.50;5051606;28;20037;-62
2021/03/28 10:10:20;;;;;;;5.97;2.35;;;;;;;13.72;38.73;100207.22;5051631;28;20048;-60
2021/03/28 10:12:53;;;;;;;6.10;2.15;;;;;;;13.72;38.31;100212.53;5051734;28;20492;-60
2021/03/28 10:15:23;;;;;;;5.07;2.30;;;;;;;13.85;38.45;100210.91;5051697;28;20053;-61
2021/03/28 10:18:05;;;;;;;6.30;2.10;;;;;;;13.93;38.27;100220.66;5051401;28;20115;-61
2021/03/28 10:20:59;;;;;;;5.78;2.47;;;;;;;13.89;37.68;100216.69;5051770;28;20056;-62
2021/03/28 10:23:45;;;;;;;5.72;1.95;;;;;;;13.84;36.92;100221.75;5050444;28;20063;-59
2021/03/28 10:26:35;;;;;;;6.18;2.30;;;;;;;13.66;37.35;100219.38;5050375;28;20053;-60
2021/03/28 10:29:17;;;;;;;5.35;2.70;;;;;;;13.75;37.66;100215.63;5051674;28;20053;-60
2021/03/28 10:31:57;;;;;;;6.70;2.40;;;;;;;13.79;37.51;100213.44;5051396;28;20041;-62
2021/03/28 10:34:50;;;;;;;11.70;7.78;;;;;;;13.89;37.20;100214.03;5051668;28;20505;-61
2021/03/28 10:37:32;;;;;;;5.05;2.10;;;;;;;14.04;36.99;100204.28;5052200;28;20040;-60
2021/03/28 10:40:24;;;;;;;4.55;1.90;;;;;;;13.96;36.55;100207.00;5055087;28;20483;-60
2021/03/28 10:43:02;;;;;;;5.05;2.03;;;;;;;13.83;36.73;100199.63;5054134;28;20055;-60
2021/03/28 10:45:52;;;;;;;5.18;2.28;;;;;;;13.78;35.42;100209.16;5055764;28;20090;-60
2021/03/28 10:48:59;;;;;;;4.68;1.92;;;;;;;13.58;35.45;100195.53;5055357;28;20072;-60
2021/03/28 10:52:02;;;;;;;7.07;2.00;;;;;;;13.50;36.42;100196.41;5055581;28;20106;-63
2021/03/28 10:55:20;;;;;;;5.75;2.28;;;;;;;13.55;36.18;100195.88;5055950;28;20041;-60
2021/03/28 10:58:35;;;;;;;4.10;1.48;;;;;;;13.43;35.62;100202.59;5054234;28;20059;-61
2021/03/28 11:01:21;;;;;;;;;;;;;;;13.31;36.13;100183.63;5000061;28;20058;-61
2021/03/28 11:04:08;;;;;;;;;;;;;;;13.53;36.70;100180.13;5056825;28;20318;-60
2021/03/28 11:06:57;;;;;;;7.95;3.97;;;;;;;13.70;35.65;100193.28;5052139;28;20006;-60
2021/03/28 11:09:49;;;;;;;5.00;2.00;;;;;;;13.71;35.75;100182.44;5055245;28;20506;-61
2021/03/28 11:12:33;;;;;;;6.55;2.33;;;;;;;13.79;35.95;100181.56;5055414;28;20041;-61
2021/03/28 11:15:22;;;;;;;5.30;1.92;;;;;;;13.76;35.60;100184.59;5053376;28;20041;-61
2021/03/28 11:18:20;;;;;;;2.92;1.80;;;;;;;13.83;35.73;100174.88;5053861;28;20045;-61
2021/03/28 11:20:55;;;;;;;4.78;2.28;;;;;;;13.85;35.00;100184.34;5030072;28;20103;-60
2021/03/28 11:23:45;;;;;;;6.90;2.30;;;;;;;13.84;35.13;100174.72;5054039;28;20056;-62
2021/03/28 11:26:52;;;;;;;7.38;1.98;;;;;;;14.01;35.36;100172.72;5055034;28;20045;-61
2021/03/28 11:30:03;;;;;;;5.57;1.92;;;;;;;14.05;34.53;100173.19;5059769;28;20071;-61
2021/03/28 11:32:53;;;;;;;4.65;1.88;;;;;;;13.92;35.34;100160.53;5068474;28;20491;-61
2021/03/28 11:35:27;;;;;;;9.10;2.00;;;;;;;13.97;35.07;100149.34;5056358;28;20491;-61
2021/03/28 11:37:56;;;;;;;;;;;;;;;14.00;35.05;100146.28;5055648;28;20041;-61
2021/03/28 11:40:32;;;;;;;5.38;2.13;;;;;;;14.10;35.00;100146.88;5054923;28;19921;-60
2021/03/28 11:43:24;;;;;;;5.47;2.00;;;;;;;14.07;34.69;100148.06;5054756;28;20056;-59
2021/03/28 11:46:08;;;;;;;5.45;2.17;;;;;;;14.21;35.09;100141.09;5053738;28;20079;-61
2021/03/28 11:48:38;;;;;;;6.32;3.20;;;;;;;14.31;35.18;100154.94;5054624;28;20044;-61
2021/03/28 11:51:22;;;;;;;8.23;3.33;;;;;;;14.34;34.75;100148.44;5055000;28;20045;-61
2021/03/28 11:53:54;;;;;;;9.52;2.63;;;;;;;14.34;34.69;100151.91;5055407;28;20043;-61
2021/03/28 11:56:42;;;;;;;6.13;2.30;;;;;;;14.29;34.21;100154.31;5054061;28;20055;-61
2021/03/28 11:59:13;;;;;;;6.57;2.30;;;;;;;14.37;34.94;100145.41;5054861;28;20037;-59
2021/03/28 12:02:02;;;;;;;5.30;1.80;;;;;;;14.31;34.54;100152.28;5054084;28;20402;-61
2021/03/28 12:04:32;;;;;;;8.20;2.47;;;;;;;14.46;34.67;100141.63;5053938;28;20060;-61
2021/03/28 12:07:14;;;;;;;8.15;2.38;;;;;;;14.65;34.75;100134.09;5054712;28;20112;-61
2021/03/28 12:09:45;;;;;;;5.10;1.95;;;;;;;14.55;33.87;100139.72;5054201;28;20503;-61
2021/03/28 12:12:25;;;;;;;6.22;2.38;;;;;;;14.55;34.56;100132.56;5054551;28;20053;-61
2021/03/28 12:14:53;;;;;;;5.10;1.90;;;;;;;14.71;34.33;100138.69;5054186;28;20053;-61
2021/03/28 12:17:26;;;;;;;6.35;2.67;;;;;;;14.78;34.28;100137.78;5053878;28;20432;-65
2021/03/28 12:20:17;;;;;;;6.65;1.88;;;;;;;14.76;33.84;100139.78;5052683;28;20056;-60
2021/03/28 12:22:50;;;;;;;3.42;1.67;;;;;;;14.81;34.12;100139.22;5053861;28;20158;-61
2021/03/28 12:25:23;;;;;;;5.40;2.28;;;;;;;14.95;33.82;100125.06;5053639;28;20410;-61
2021/03/28 12:28:22;;;;;;;6.37;2.00;;;;;;;15.05;34.11;100112.22;5053909;28;20398;-60
2021/03/28 12:30:49;;;;;;;6.50;2.13;;;;;;;15.11;33.31;100116.00;5052374;28;20060;-61
2021/03/28 12:33:18;;;;;;;4.45;1.90;;;;;;;15.09;33.44;100112.69;5053810;28;20041;-59
2021/03/28 12:36:02;;;;;;;6.25;2.22;;;;;;;15.04;33.16;100101.78;5052346;28;20049;-61
2021/03/28 12:38:56;;;;;;;9.35;2.05;;;;;;;15.21;33.63;100087.19;5054069;28;20415;-60
2021/03/28 12:41:27;;;;;;;4.32;1.65;;;;;;;15.23;33.34;100095.81;5054255;28;20050;-61
2021/03/28 12:43:58;;;;;;;8.63;2.45;;;;;;;15.19;33.41;100104.41;5054588;28;20047;-63
2021/03/28 12:47:00;;;;;;;10.65;4.45;;;;;;;15.21;33.08;100089.03;5054039;28;20041;-60
2021/03/28 12:49:33;;;;;;;16.27;9.07;;;;;;;15.29;32.64;100087.06;5053477;28;20496;-59
2021/03/28 12:52:03;;;;;;;;;;;;;;;15.28;32.72;100088.06;5056196;28;20045;-60
2021/03/28 12:54:36;;;;;;;10.43;3.80;;;;;;;15.26;32.82;100083.94;5052162;28;20450;-59
2021/03/28 12:57:25;;;;;;;10.70;5.85;;;;;;;15.30;33.13;100074.56;5053602;28;20136;-58
2021/03/28 12:59:59;;;;;;;12.90;8.18;;;;;;;15.48;32.93;100068.78;5052459;28;20049;-59